Terminal Aerodrome Forecast
Issued by NWS Wilmington, OH

Home | Current Version | Previous Version | Text Only | Print | Product List | Glossary On
Versions: 1 2 3 4 5 6 7 8 9 10 11 12 13 14 15 16 17 18 19 20 21 22 23 24 25 26 27 28
000
FTUS41 KILN 141300 AAB
TAFCMH
TAF AMD
KCMH 141343Z 1414/1512 24007KT 5SM -RA BR VCTS FEW007 BKN028CB
      OVC070
      TEMPO 1414/1416 2SM +SHRA BR OVC007
     FM141600 22008KT P6SM SCT035 BKN100
     FM142200 23012KT P6SM VCTS BKN040CB
     FM150200 24010KT P6SM SCT040
     FM150900 29010KT P6SM FEW040=

USA.gov is the U.S. government's official web portal to all federal, state and local government web resources and services.